createdAt,value
2022-09-30T00:02:12.353Z,9.14
2022-09-30T00:04:39.124Z,9.15
2022-09-30T00:07:05.760Z,9.23
2022-09-30T00:09:32.504Z,9.25
2022-09-30T00:11:59.204Z,9.31
2022-09-30T00:14:26.191Z,9.23
2022-09-30T00:16:53.003Z,9.12
2022-09-30T00:19:19.821Z,9.11
2022-09-30T00:21:46.622Z,9.07
2022-09-30T00:24:13.428Z,9.00
2022-09-30T00:26:40.122Z,8.95
2022-09-30T00:29:06.866Z,8.90
2022-09-30T00:31:35.240Z,9.04
2022-09-30T00:34:09.007Z,9.07
2022-09-30T00:36:47.443Z,8.98
2022-09-30T00:39:20.020Z,8.96
2022-09-30T00:41:49.049Z,8.83
2022-09-30T00:44:40.988Z,8.71
2022-09-30T00:47:38.369Z,8.67
2022-09-30T00:50:19.529Z,8.81
2022-09-30T00:52:50.800Z,8.73
2022-09-30T00:55:26.759Z,8.75
2022-09-30T00:57:53.916Z,8.63
2022-09-30T01:00:20.632Z,8.44
2022-09-30T01:02:48.345Z,8.57
2022-09-30T01:05:15.062Z,8.43
2022-09-30T01:07:42.279Z,8.45
2022-09-30T01:10:12.427Z,8.49
2022-09-30T01:12:39.311Z,8.50
2022-09-30T01:15:06.667Z,8.46
2022-09-30T01:17:47.105Z,8.44
2022-09-30T01:20:35.461Z,8.41
2022-09-30T01:23:40.200Z,8.44
2022-09-30T01:26:39.117Z,8.47
2022-09-30T01:29:23.648Z,8.35
2022-09-30T01:32:08.550Z,8.28
2022-09-30T01:34:38.141Z,8.29
2022-09-30T01:37:19.761Z,8.25
2022-09-30T01:40:22.248Z,8.25
2022-09-30T01:43:05.831Z,8.37
2022-09-30T01:45:50.325Z,8.31
2022-09-30T01:48:23.612Z,8.21
2022-09-30T01:51:01.771Z,8.21
2022-09-30T01:53:33.293Z,8.31
2022-09-30T01:56:04.544Z,8.34
2022-09-30T01:58:40.080Z,8.47
2022-09-30T02:01:12.221Z,8.56
2022-09-30T02:03:49.350Z,8.51
2022-09-30T02:06:22.028Z,8.64
2022-09-30T02:09:11.650Z,8.60
2022-09-30T02:11:38.703Z,8.52
2022-09-30T02:14:11.509Z,8.55
2022-09-30T02:17:02.299Z,8.64
2022-09-30T02:19:59.225Z,8.65
2022-09-30T02:22:32.512Z,8.53
2022-09-30T02:25:04.308Z,8.55
2022-09-30T02:27:34.977Z,8.40
2022-09-30T02:30:04.344Z,8.48
2022-09-30T02:32:34.164Z,8.50
2022-09-30T02:35:05.393Z,8.61
2022-09-30T02:37:37.920Z,8.67
2022-09-30T02:40:17.646Z,8.68
2022-09-30T02:42:45.713Z,8.72
2022-09-30T02:45:16.553Z,8.78
2022-09-30T02:47:48.741Z,8.62
2022-09-30T02:50:21.294Z,8.60
2022-09-30T02:53:17.225Z,8.62
2022-09-30T02:56:02.816Z,8.53
2022-09-30T02:58:30.417Z,8.59
2022-09-30T03:00:57.690Z,8.51
2022-09-30T03:03:33.534Z,8.67
2022-09-30T03:06:00.214Z,8.72
2022-09-30T03:08:26.889Z,8.70
2022-09-30T03:10:53.529Z,8.73
2022-09-30T03:13:29.099Z,8.74
2022-09-30T03:16:23.490Z,8.74
2022-09-30T03:18:55.189Z,8.85
2022-09-30T03:22:21.356Z,8.69
2022-09-30T03:25:11.605Z,8.62
2022-09-30T03:27:56.949Z,8.51
2022-09-30T03:30:27.176Z,8.58
2022-09-30T03:33:02.301Z,8.63
2022-09-30T03:36:05.457Z,8.62
2022-09-30T03:38:56.781Z,8.60
2022-09-30T03:41:38.553Z,8.52
2022-09-30T03:44:11.328Z,8.49
2022-09-30T03:46:45.646Z,8.25
2022-09-30T03:49:16.092Z,8.48
2022-09-30T03:51:43.099Z,8.31
2022-09-30T03:54:11.741Z,8.50
2022-09-30T03:56:45.349Z,8.49
2022-09-30T03:59:28.061Z,8.55
2022-09-30T04:01:55.208Z,8.47
2022-09-30T04:04:21.892Z,8.65
2022-09-30T04:06:48.635Z,8.63
2022-09-30T04:09:15.388Z,8.62
2022-09-30T04:11:42.532Z,8.60
2022-09-30T04:14:09.141Z,8.58
2022-09-30T04:16:36.911Z,8.55
2022-09-30T04:19:04.112Z,8.47
2022-09-30T04:21:31.042Z,8.59
2022-09-30T04:23:57.719Z,8.63
2022-09-30T04:26:24.565Z,8.50
2022-09-30T04:28:52.603Z,8.52
2022-09-30T04:31:21.429Z,8.62
2022-09-30T04:33:48.177Z,8.66
2022-09-30T04:36:14.826Z,8.62
2022-09-30T04:38:41.537Z,8.64
2022-09-30T04:41:08.861Z,8.52
2022-09-30T04:43:35.476Z,8.67
2022-09-30T04:46:02.378Z,8.53
2022-09-30T04:48:30.400Z,8.44
2022-09-30T04:50:59.561Z,8.43
2022-09-30T04:53:26.206Z,8.50
2022-09-30T04:55:58.619Z,8.51
2022-09-30T04:58:25.221Z,8.60
2022-09-30T05:00:51.901Z,8.60
2022-09-30T05:03:20.047Z,8.64
2022-09-30T05:05:46.765Z,8.52
2022-09-30T05:08:13.548Z,8.38
2022-09-30T05:10:40.206Z,8.51
2022-09-30T05:13:07.248Z,8.52
2022-09-30T05:15:35.185Z,8.56
2022-09-30T05:18:02.028Z,8.47
2022-09-30T05:20:28.625Z,8.44
2022-09-30T05:22:56.255Z,8.43
2022-09-30T05:25:23.770Z,8.45
2022-09-30T05:27:51.156Z,8.54
2022-09-30T05:30:17.777Z,8.49
2022-09-30T05:32:44.482Z,8.49
2022-09-30T05:35:12.225Z,8.44
2022-09-30T05:37:39.081Z,8.55
2022-09-30T05:40:07.180Z,8.43
2022-09-30T05:42:36.031Z,8.45
2022-09-30T05:45:06.815Z,8.42
2022-09-30T05:47:34.149Z,8.48
2022-09-30T05:50:00.816Z,8.41
2022-09-30T05:52:28.301Z,8.37
2022-09-30T05:54:56.431Z,8.35
2022-09-30T05:57:23.047Z,8.43
2022-09-30T05:59:49.687Z,8.36
2022-09-30T06:02:16.469Z,8.58
2022-09-30T06:04:43.156Z,8.50
2022-09-30T06:07:10.621Z,8.49
2022-09-30T06:09:37.488Z,8.54
2022-09-30T06:12:05.508Z,8.39
2022-09-30T06:14:33.003Z,8.44
2022-09-30T06:17:00.650Z,8.47
2022-09-30T06:19:31.095Z,8.51
2022-09-30T06:21:58.247Z,8.48
2022-09-30T06:24:25.232Z,8.55
2022-09-30T06:26:51.892Z,8.51
2022-09-30T06:29:19.695Z,8.63
2022-09-30T06:31:46.373Z,8.58
2022-09-30T06:34:13.061Z,8.45
2022-09-30T06:36:39.683Z,8.49
2022-09-30T06:39:09.121Z,8.52
2022-09-30T06:41:44.198Z,8.60
2022-09-30T06:44:11.101Z,8.76
2022-09-30T06:46:49.684Z,8.63
2022-09-30T06:49:17.680Z,8.61
2022-09-30T06:51:44.293Z,8.48
2022-09-30T06:54:11.393Z,8.58
2022-09-30T06:56:38.303Z,8.78
2022-09-30T06:59:04.968Z,8.79
2022-09-30T07:01:31.623Z,8.82
2022-09-30T07:03:58.312Z,8.89
2022-09-30T07:06:29.256Z,8.88
2022-09-30T07:08:56.987Z,9.13
2022-09-30T07:11:24.918Z,9.24
2022-09-30T07:13:51.813Z,9.30
2022-09-30T07:16:20.045Z,9.38
2022-09-30T07:18:47.041Z,9.41
2022-09-30T07:21:16.232Z,9.58
2022-09-30T07:23:47.861Z,9.59
2022-09-30T07:26:16.169Z,9.60
2022-09-30T07:28:43.788Z,9.80
2022-09-30T07:31:31.958Z,9.72
2022-09-30T07:33:59.572Z,9.72
2022-09-30T07:36:33.988Z,9.80
2022-09-30T07:39:05.967Z,9.98
2022-09-30T07:41:34.626Z,10.03
2022-09-30T07:44:01.576Z,10.16
2022-09-30T07:46:32.289Z,10.25
2022-09-30T07:49:02.354Z,10.29
2022-09-30T07:51:33.717Z,10.35
2022-09-30T07:54:08.141Z,10.43
2022-09-30T07:56:57.918Z,10.51
2022-09-30T07:59:23.584Z,10.57
2022-09-30T08:01:50.962Z,10.72
2022-09-30T08:04:19.293Z,10.74
2022-09-30T08:06:48.451Z,10.73
2022-09-30T08:09:17.253Z,10.75
2022-09-30T08:11:43.972Z,10.73
2022-09-30T08:14:15.649Z,10.74
2022-09-30T08:16:42.883Z,10.82
2022-09-30T08:19:13.897Z,10.92
2022-09-30T08:21:40.512Z,10.99
2022-09-30T08:24:07.128Z,10.93
2022-09-30T08:26:33.834Z,10.99
2022-09-30T08:29:01.064Z,10.95
2022-09-30T08:31:28.226Z,11.04
2022-09-30T08:33:54.921Z,10.98
2022-09-30T08:36:26.426Z,11.23
2022-09-30T08:38:53.787Z,11.21
2022-09-30T08:41:39.002Z,11.44
2022-09-30T08:44:33.385Z,11.39
2022-09-30T08:47:18.265Z,11.42
2022-09-30T08:49:47.604Z,11.31
2022-09-30T08:52:30.224Z,11.29
2022-09-30T08:55:04.759Z,11.30
2022-09-30T08:57:47.220Z,11.21
2022-09-30T09:00:17.152Z,11.34
2022-09-30T09:03:03.319Z,11.38
2022-09-30T09:05:29.961Z,11.45
2022-09-30T09:08:27.729Z,11.64
2022-09-30T09:11:09.605Z,11.74
2022-09-30T09:13:46.837Z,11.83
2022-09-30T09:16:35.878Z,11.87
2022-09-30T09:19:11.898Z,11.91
2022-09-30T09:21:47.537Z,11.92
2022-09-30T09:24:16.807Z,11.89
2022-09-30T09:26:43.760Z,11.97
2022-09-30T09:29:39.670Z,12.08
2022-09-30T09:32:26.133Z,12.19
2022-09-30T09:34:58.069Z,12.33
2022-09-30T09:37:57.999Z,12.34
2022-09-30T09:41:03.488Z,12.34
2022-09-30T09:44:02.605Z,12.47
2022-09-30T09:46:48.318Z,12.59
2022-09-30T09:49:20.816Z,12.57
2022-09-30T09:51:51.333Z,12.68
2022-09-30T09:54:22.016Z,12.81
2022-09-30T09:56:48.929Z,12.90
2022-09-30T09:59:19.764Z,13.05
2022-09-30T10:01:52.836Z,13.01
2022-09-30T10:04:26.241Z,13.10
2022-09-30T10:07:01.089Z,13.13
2022-09-30T10:09:29.587Z,13.10
2022-09-30T10:12:05.276Z,13.32
2022-09-30T10:14:33.258Z,13.50
2022-09-30T10:17:01.884Z,13.61
2022-09-30T10:19:30.454Z,13.76
2022-09-30T10:22:09.024Z,13.82
2022-09-30T10:24:37.649Z,13.83
2022-09-30T10:27:04.881Z,13.90
2022-09-30T10:29:35.951Z,13.93
2022-09-30T10:32:06.963Z,13.75
2022-09-30T10:34:36.161Z,13.74
2022-09-30T10:37:13.496Z,13.62
2022-09-30T10:39:42.770Z,13.68
2022-09-30T10:42:16.631Z,13.63
2022-09-30T10:44:49.482Z,13.71
2022-09-30T10:47:21.632Z,13.73
2022-09-30T10:49:51.807Z,13.92
2022-09-30T10:52:24.957Z,13.94
2022-09-30T10:54:59.574Z,14.02
2022-09-30T10:57:27.229Z,13.68
2022-09-30T11:00:00.718Z,14.05
2022-09-30T11:02:48.294Z,14.16
2022-09-30T11:05:22.600Z,14.22
2022-09-30T11:08:10.803Z,14.30
2022-09-30T11:10:40.251Z,14.14
2022-09-30T11:13:28.612Z,14.35
2022-09-30T11:16:33.335Z,14.12
2022-09-30T11:19:05.104Z,13.86
2022-09-30T11:21:39.999Z,14.12
2022-09-30T11:24:15.607Z,14.22
2022-09-30T11:26:56.972Z,14.33
2022-09-30T11:29:59.020Z,14.62
2022-09-30T11:32:35.419Z,14.68
2022-09-30T11:35:14.213Z,14.83
2022-09-30T11:38:18.364Z,14.96
2022-09-30T11:40:58.478Z,15.03
2022-09-30T11:44:09.885Z,14.79
2022-09-30T11:46:54.770Z,14.67
2022-09-30T11:49:49.293Z,14.60
2022-09-30T11:52:30.814Z,14.56
2022-09-30T11:55:31.329Z,14.59
2022-09-30T11:58:40.643Z,14.75
2022-09-30T12:01:21.487Z,15.22
2022-09-30T12:03:59.133Z,15.45
2022-09-30T12:06:38.718Z,15.79
2022-09-30T12:09:17.327Z,16.19
2022-09-30T12:11:45.730Z,16.48
2022-09-30T12:14:29.554Z,16.38
2022-09-30T12:16:57.881Z,15.87
2022-09-30T12:19:33.511Z,15.47
2022-09-30T12:22:19.605Z,15.74
2022-09-30T12:24:46.326Z,15.53
2022-09-30T12:27:45.683Z,15.39
2022-09-30T12:30:18.303Z,14.67
2022-09-30T12:33:12.531Z,14.86
2022-09-30T12:36:09.715Z,14.99
2022-09-30T12:39:00.997Z,14.96
2022-09-30T12:41:47.790Z,15.56
2022-09-30T12:44:53.330Z,16.07
2022-09-30T12:47:27.422Z,16.09
2022-09-30T12:49:55.921Z,15.97
2022-09-30T12:52:22.764Z,16.23
2022-09-30T12:54:52.873Z,15.70
2022-09-30T12:57:29.399Z,16.20
2022-09-30T13:00:17.433Z,16.50
2022-09-30T13:02:47.724Z,16.77
2022-09-30T13:05:32.563Z,16.96
2022-09-30T13:08:05.043Z,16.77
2022-09-30T13:10:32.683Z,16.99
2022-09-30T13:13:17.016Z,16.95
2022-09-30T13:15:45.075Z,16.94
2022-09-30T13:18:20.571Z,17.07
2022-09-30T13:21:08.412Z,17.18
2022-09-30T13:23:42.942Z,17.35
2022-09-30T13:26:34.375Z,17.64
2022-09-30T13:29:01.105Z,17.75
2022-09-30T13:31:30.163Z,18.04
2022-09-30T13:34:02.607Z,18.43
2022-09-30T13:36:30.325Z,18.68
2022-09-30T13:39:15.497Z,18.61
2022-09-30T13:41:44.118Z,17.87
2022-09-30T13:44:52.097Z,18.11
2022-09-30T13:47:44.790Z,18.35
2022-09-30T13:50:31.790Z,18.57
2022-09-30T13:53:15.309Z,18.77
2022-09-30T13:55:46.823Z,18.90
2022-09-30T13:58:19.496Z,18.90
2022-09-30T14:00:49.007Z,18.87
2022-09-30T14:03:27.615Z,18.42
2022-09-30T14:06:00.206Z,18.41
2022-09-30T14:08:29.494Z,18.52
2022-09-30T14:11:07.231Z,17.58
2022-09-30T14:13:36.869Z,17.77
2022-09-30T14:16:06.903Z,18.07
2022-09-30T14:18:39.537Z,18.26
2022-09-30T14:21:29.225Z,18.64
2022-09-30T14:24:24.065Z,18.86
2022-09-30T14:27:06.757Z,18.97
2022-09-30T14:30:01.964Z,19.01
2022-09-30T14:33:15.042Z,18.74
2022-09-30T14:35:42.032Z,18.90
2022-09-30T14:38:16.246Z,18.91
2022-09-30T14:40:50.259Z,18.98
2022-09-30T14:43:21.089Z,18.78
2022-09-30T14:45:52.102Z,18.55
2022-09-30T14:48:28.212Z,18.47
2022-09-30T14:51:07.852Z,19.08
2022-09-30T14:53:56.156Z,19.07
2022-09-30T14:56:30.673Z,19.42
2022-09-30T14:58:59.485Z,19.91
2022-09-30T15:01:31.504Z,19.95
2022-09-30T15:04:16.770Z,19.78
2022-09-30T15:06:47.674Z,19.13
2022-09-30T15:09:18.000Z,18.81
2022-09-30T15:11:44.936Z,19.36
2022-09-30T15:14:22.765Z,19.52
2022-09-30T15:16:55.150Z,19.82
2022-09-30T15:19:43.131Z,19.82
2022-09-30T15:22:10.718Z,19.48
2022-09-30T15:24:37.835Z,18.65
2022-09-30T15:27:05.155Z,18.10
2022-09-30T15:29:31.774Z,17.59
2022-09-30T15:32:01.260Z,17.43
2022-09-30T15:34:29.131Z,17.11
2022-09-30T15:36:58.818Z,16.69
2022-09-30T15:39:48.585Z,16.40
2022-09-30T15:42:37.125Z,16.15
2022-09-30T15:45:36.388Z,16.16
2022-09-30T15:48:06.068Z,16.08
2022-09-30T15:50:41.787Z,15.65
2022-09-30T15:53:28.944Z,15.60
2022-09-30T15:56:00.232Z,15.38
2022-09-30T15:58:26.917Z,15.10
2022-09-30T16:00:54.760Z,15.02
2022-09-30T16:03:29.589Z,14.85
2022-09-30T16:06:09.322Z,14.70
2022-09-30T16:08:45.721Z,14.55
2022-09-30T16:11:32.495Z,14.46
2022-09-30T16:14:00.580Z,14.35
2022-09-30T16:16:30.560Z,14.00
2022-09-30T16:18:58.535Z,13.81
2022-09-30T16:21:44.584Z,13.71
2022-09-30T16:24:29.065Z,13.35
2022-09-30T16:26:57.615Z,13.37
2022-09-30T16:29:26.202Z,13.25
2022-09-30T16:31:55.584Z,13.27
2022-09-30T16:34:23.185Z,13.17
2022-09-30T16:36:50.580Z,13.09
2022-09-30T16:39:17.344Z,12.97
2022-09-30T16:41:44.993Z,12.99
2022-09-30T16:44:11.869Z,12.89
2022-09-30T16:46:38.555Z,13.00
2022-09-30T16:49:18.861Z,13.05
2022-09-30T16:51:46.117Z,13.07
2022-09-30T16:54:12.817Z,13.03
2022-09-30T16:56:39.938Z,12.99
2022-09-30T16:59:17.268Z,12.88
2022-09-30T17:01:44.122Z,12.72
2022-09-30T17:04:14.021Z,12.71
2022-09-30T17:06:43.877Z,12.62
2022-09-30T17:09:10.548Z,12.50
2022-09-30T17:11:38.204Z,12.42
2022-09-30T17:14:05.565Z,12.31
2022-09-30T17:16:33.269Z,12.27
2022-09-30T17:19:00.493Z,12.11
2022-09-30T17:21:27.422Z,11.86
2022-09-30T17:23:55.322Z,11.75
2022-09-30T17:26:22.382Z,11.76
2022-09-30T17:28:49.189Z,11.72
2022-09-30T17:31:16.080Z,11.77
2022-09-30T17:33:42.932Z,11.77
2022-09-30T17:36:11.746Z,11.68
2022-09-30T17:38:38.832Z,11.56
2022-09-30T17:41:24.657Z,11.42
2022-09-30T17:43:51.396Z,11.32
2022-09-30T17:46:21.262Z,11.31
2022-09-30T17:48:48.302Z,11.32
2022-09-30T17:51:16.535Z,11.26
2022-09-30T17:53:44.190Z,11.17
2022-09-30T17:56:20.092Z,11.18
2022-09-30T17:58:49.178Z,11.17
2022-09-30T18:01:17.711Z,11.10
2022-09-30T18:03:45.953Z,11.03
2022-09-30T18:06:14.679Z,11.01
2022-09-30T18:08:41.620Z,10.94
2022-09-30T18:11:08.399Z,10.82
2022-09-30T18:13:35.198Z,10.80
2022-09-30T18:16:06.287Z,10.71
2022-09-30T18:18:34.599Z,10.58
2022-09-30T18:21:01.237Z,10.53
2022-09-30T18:23:27.911Z,10.47
2022-09-30T18:25:56.342Z,10.45
2022-09-30T18:28:23.313Z,10.38
2022-09-30T18:30:50.074Z,10.35
2022-09-30T18:33:17.527Z,10.30
2022-09-30T18:35:44.306Z,10.21
2022-09-30T18:38:12.893Z,10.06
2022-09-30T18:40:42.278Z,10.01
2022-09-30T18:43:13.045Z,10.03
2022-09-30T18:45:40.335Z,9.96
2022-09-30T18:48:07.831Z,9.95
2022-09-30T18:50:34.772Z,9.89
2022-09-30T18:53:09.111Z,9.94
2022-09-30T18:55:39.262Z,9.94
2022-09-30T18:58:06.109Z,9.94
2022-09-30T19:00:33.328Z,9.93
2022-09-30T19:03:00.160Z,9.78
2022-09-30T19:05:27.190Z,9.69
2022-09-30T19:07:54.519Z,9.74
2022-09-30T19:10:21.648Z,9.65
2022-09-30T19:12:49.703Z,9.74
2022-09-30T19:15:16.552Z,9.68
2022-09-30T19:17:44.474Z,9.69
2022-09-30T19:20:12.389Z,9.75
2022-09-30T19:22:39.074Z,9.74
2022-09-30T19:25:12.456Z,9.82
2022-09-30T19:27:41.053Z,9.79
2022-09-30T19:30:10.306Z,9.75
2022-09-30T19:32:37.378Z,9.66
2022-09-30T19:35:06.892Z,9.63
2022-09-30T19:37:34.442Z,9.55
2022-09-30T19:40:10.114Z,9.41
2022-09-30T19:42:43.032Z,9.36
2022-09-30T19:45:09.903Z,9.29
2022-09-30T19:47:36.732Z,9.18
2022-09-30T19:50:04.272Z,9.18
2022-09-30T19:52:56.156Z,9.13
2022-09-30T19:55:24.010Z,8.96
2022-09-30T19:57:50.702Z,8.67
2022-09-30T20:00:17.499Z,8.56
2022-09-30T20:02:44.235Z,8.60
2022-09-30T20:05:10.957Z,8.68
2022-09-30T20:07:37.582Z,8.67
2022-09-30T20:10:04.599Z,8.67
2022-09-30T20:12:31.344Z,8.63
2022-09-30T20:15:16.380Z,8.58
2022-09-30T20:17:43.762Z,8.51
2022-09-30T20:20:29.010Z,8.48
2022-09-30T20:22:56.956Z,8.37
2022-09-30T20:25:23.616Z,8.36
2022-09-30T20:27:52.591Z,8.33
2022-09-30T20:30:20.214Z,8.35
2022-09-30T20:32:46.875Z,8.33
2022-09-30T20:35:14.093Z,8.30
2022-09-30T20:37:42.302Z,8.27
2022-09-30T20:40:09.780Z,8.24
2022-09-30T20:42:38.596Z,8.18
2022-09-30T20:45:10.269Z,8.10
2022-09-30T20:47:38.351Z,8.11
2022-09-30T20:50:06.493Z,8.07
2022-09-30T20:52:33.144Z,8.02
2022-09-30T20:55:00.598Z,7.97
2022-09-30T20:57:31.117Z,7.99
2022-09-30T20:59:59.937Z,7.85
2022-09-30T21:02:28.174Z,7.79
2022-09-30T21:04:57.733Z,7.84
2022-09-30T21:07:25.407Z,7.81
2022-09-30T21:09:52.275Z,7.87
2022-09-30T21:12:19.399Z,7.88
2022-09-30T21:14:46.206Z,7.77
2022-09-30T21:17:12.897Z,7.78
2022-09-30T21:19:40.128Z,7.75
2022-09-30T21:22:07.076Z,7.77
2022-09-30T21:24:33.802Z,7.65
2022-09-30T21:27:01.727Z,7.59
2022-09-30T21:29:30.698Z,7.49
2022-09-30T21:31:57.500Z,7.54
2022-09-30T21:34:24.613Z,7.57
2022-09-30T21:36:51.444Z,7.56
2022-09-30T21:39:18.241Z,7.52
2022-09-30T21:41:45.353Z,7.59
2022-09-30T21:44:11.993Z,7.61
2022-09-30T21:46:38.663Z,7.52
2022-09-30T21:49:17.077Z,7.50
2022-09-30T21:51:43.689Z,7.32
2022-09-30T21:54:13.555Z,7.36
2022-09-30T21:56:42.305Z,7.45
2022-09-30T21:59:09.891Z,7.39
2022-09-30T22:01:37.651Z,7.31
2022-09-30T22:04:05.312Z,7.33
2022-09-30T22:06:32.149Z,7.31
2022-09-30T22:09:01.569Z,7.40
2022-09-30T22:11:29.986Z,7.49
2022-09-30T22:13:57.993Z,7.45
2022-09-30T22:16:27.984Z,7.40
2022-09-30T22:18:55.936Z,7.39
2022-09-30T22:21:22.640Z,7.46
2022-09-30T22:23:49.825Z,7.57
2022-09-30T22:26:18.719Z,7.62
2022-09-30T22:28:46.633Z,7.68
2022-09-30T22:31:19.623Z,7.71
2022-09-30T22:34:06.211Z,7.56
2022-09-30T22:36:51.595Z,7.53
2022-09-30T22:39:18.571Z,7.59
2022-09-30T22:41:45.315Z,7.56
2022-09-30T22:44:12.293Z,7.64
2022-09-30T22:46:39.631Z,7.63
2022-09-30T22:49:07.152Z,7.60
2022-09-30T22:51:34.197Z,7.63
2022-09-30T22:54:03.076Z,7.79
2022-09-30T22:56:30.875Z,7.69
2022-09-30T22:58:58.317Z,7.67
2022-09-30T23:01:25.354Z,7.76
2022-09-30T23:03:55.603Z,7.76
2022-09-30T23:06:24.410Z,7.80
2022-09-30T23:08:51.864Z,7.85
2022-09-30T23:11:18.948Z,7.88
2022-09-30T23:13:49.385Z,7.82
2022-09-30T23:16:16.941Z,7.70
2022-09-30T23:18:46.649Z,7.74
2022-09-30T23:21:15.646Z,7.63
2022-09-30T23:23:42.533Z,7.57
2022-09-30T23:26:15.313Z,7.57
2022-09-30T23:28:42.333Z,7.64
2022-09-30T23:31:11.704Z,7.64
2022-09-30T23:33:44.182Z,7.69
2022-09-30T23:36:11.501Z,7.70
2022-09-30T23:38:38.132Z,7.77
2022-09-30T23:41:05.293Z,7.77
2022-09-30T23:43:34.182Z,7.89
2022-09-30T23:46:01.582Z,7.90
2022-09-30T23:48:28.521Z,7.93
2022-09-30T23:50:55.263Z,7.90
2022-09-30T23:53:23.091Z,7.80
2022-09-30T23:56:04.571Z,7.95
2022-09-30T23:58:33.606Z,7.91
